sensor_id;sensor_type;location;lat;lon;timestamp;temperature;humidity
51811;DHT22;52468;40.116;18.296;2023-12-07T00:24:11;11.00;83.80
51811;DHT22;52468;40.116;18.296;2023-12-07T00:26:39;11.10;84.20
51811;DHT22;52468;40.116;18.296;2023-12-07T00:29:07;11.00;84.30
51811;DHT22;52468;40.116;18.296;2023-12-07T00:31:35;11.10;84.20
51811;DHT22;52468;40.116;18.296;2023-12-07T00:34:03;11.00;84.60
51811;DHT22;52468;40.116;18.296;2023-12-07T00:36:31;11.00;84.80
51811;DHT22;52468;40.116;18.296;2023-12-07T00:38:59;11.00;84.90
51811;DHT22;52468;40.116;18.296;2023-12-07T00:41:27;11.10;85.10
51811;DHT22;52468;40.116;18.296;2023-12-07T00:43:54;11.10;85.30
51811;DHT22;52468;40.116;18.296;2023-12-07T00:46:22;11.10;85.10
51811;DHT22;52468;40.116;18.296;2023-12-07T00:48:50;11.10;85.30
51811;DHT22;52468;40.116;18.296;2023-12-07T00:51:18;11.10;85.00
51811;DHT22;52468;40.116;18.296;2023-12-07T00:53:46;11.20;85.10
51811;DHT22;52468;40.116;18.296;2023-12-07T00:56:14;11.20;85.40
51811;DHT22;52468;40.116;18.296;2023-12-07T00:58:42;11.20;85.40
51811;DHT22;52468;40.116;18.296;2023-12-07T01:01:10;11.30;85.50
51811;DHT22;52468;40.116;18.296;2023-12-07T01:03:38;11.30;85.60
51811;DHT22;52468;40.116;18.296;2023-12-07T01:06:08;11.40;85.70
51811;DHT22;52468;40.116;18.296;2023-12-07T01:08:37;11.30;85.30
51811;DHT22;52468;40.116;18.296;2023-12-07T01:24:02;11.00;85.60
51811;DHT22;52468;40.116;18.296;2023-12-07T01:26:33;10.90;86.10
51811;DHT22;52468;40.116;18.296;2023-12-07T01:29:01;10.90;86.30
51811;DHT22;52468;40.116;18.296;2023-12-07T01:31:29;10.90;86.10
51811;DHT22;52468;40.116;18.296;2023-12-07T01:33:57;11.00;86.10
51811;DHT22;52468;40.116;18.296;2023-12-07T01:36:25;11.00;86.40
51811;DHT22;52468;40.116;18.296;2023-12-07T01:38:53;11.00;86.50
51811;DHT22;52468;40.116;18.296;2023-12-07T01:41:21;11.00;86.50
51811;DHT22;52468;40.116;18.296;2023-12-07T01:43:49;11.00;86.70
51811;DHT22;52468;40.116;18.296;2023-12-07T01:46:17;11.00;86.70
51811;DHT22;52468;40.116;18.296;2023-12-07T01:48:46;11.00;86.80
51811;DHT22;52468;40.116;18.296;2023-12-07T01:51:17;11.10;86.60
51811;DHT22;52468;40.116;18.296;2023-12-07T01:53:46;11.10;86.80
51811;DHT22;52468;40.116;18.296;2023-12-07T01:56:15;11.10;86.70
51811;DHT22;52468;40.116;18.296;2023-12-07T01:58:44;11.10;86.50
51811;DHT22;52468;40.116;18.296;2023-12-07T02:01:12;11.10;86.60
51811;DHT22;52468;40.116;18.296;2023-12-07T02:03:40;11.20;86.40
51811;DHT22;52468;40.116;18.296;2023-12-07T02:06:08;11.20;86.60
51811;DHT22;52468;40.116;18.296;2023-12-07T02:08:38;11.10;86.60
51811;DHT22;52468;40.116;18.296;2023-12-07T02:11:09;11.20;86.40
51811;DHT22;52468;40.116;18.296;2023-12-07T02:13:38;11.20;85.90
51811;DHT22;52468;40.116;18.296;2023-12-07T02:16:13;11.10;85.80
51811;DHT22;52468;40.116;18.296;2023-12-07T02:18:51;11.20;85.80
51811;DHT22;52468;40.116;18.296;2023-12-07T02:21:33;11.10;86.10
51811;DHT22;52468;40.116;18.296;2023-12-07T02:24:03;11.00;86.20
51811;DHT22;52468;40.116;18.296;2023-12-07T02:26:35;11.10;86.00
51811;DHT22;52468;40.116;18.296;2023-12-07T02:29:03;11.10;86.00
51811;DHT22;52468;40.116;18.296;2023-12-07T02:31:31;11.20;85.90
51811;DHT22;52468;40.116;18.296;2023-12-07T02:33:59;11.10;85.80
51811;DHT22;52468;40.116;18.296;2023-12-07T02:36:28;11.00;86.10
51811;DHT22;52468;40.116;18.296;2023-12-07T02:38:57;11.10;86.20
51811;DHT22;52468;40.116;18.296;2023-12-07T02:41:27;11.10;86.30
51811;DHT22;52468;40.116;18.296;2023-12-07T02:43:55;11.00;86.60
51811;DHT22;52468;40.116;18.296;2023-12-07T02:46:26;11.10;86.20
51811;DHT22;52468;40.116;18.296;2023-12-07T02:48:54;11.10;85.80
51811;DHT22;52468;40.116;18.296;2023-12-07T02:51:22;11.10;85.50
51811;DHT22;52468;40.116;18.296;2023-12-07T02:53:50;11.00;85.50
51811;DHT22;52468;40.116;18.296;2023-12-07T02:56:17;11.00;86.00
51811;DHT22;52468;40.116;18.296;2023-12-07T02:58:45;11.00;85.90
51811;DHT22;52468;40.116;18.296;2023-12-07T03:01:13;11.00;86.30
51811;DHT22;52468;40.116;18.296;2023-12-07T03:03:41;11.00;86.10
51811;DHT22;52468;40.116;18.296;2023-12-07T03:06:09;11.10;85.80
51811;DHT22;52468;40.116;18.296;2023-12-07T03:08:37;11.10;85.80
51811;DHT22;52468;40.116;18.296;2023-12-07T03:11:06;11.00;85.90
51811;DHT22;52468;40.116;18.296;2023-12-07T03:13:34;11.10;85.90
51811;DHT22;52468;40.116;18.296;2023-12-07T03:16:07;11.00;85.90
51811;DHT22;52468;40.116;18.296;2023-12-07T03:31:33;11.00;85.30
51811;DHT22;52468;40.116;18.296;2023-12-07T03:34:01;10.90;85.20
51811;DHT22;52468;40.116;18.296;2023-12-07T03:36:31;10.90;84.90
51811;DHT22;52468;40.116;18.296;2023-12-07T03:38:58;10.80;85.40
51811;DHT22;52468;40.116;18.296;2023-12-07T03:41:26;10.60;85.60
51811;DHT22;52468;40.116;18.296;2023-12-07T03:43:54;10.60;85.40
51811;DHT22;52468;40.116;18.296;2023-12-07T03:46:22;10.60;85.40
51811;DHT22;52468;40.116;18.296;2023-12-07T03:48:50;10.50;85.30
51811;DHT22;52468;40.116;18.296;2023-12-07T03:51:18;10.50;85.20
51811;DHT22;52468;40.116;18.296;2023-12-07T03:53:46;10.50;85.70
51811;DHT22;52468;40.116;18.296;2023-12-07T03:56:24;10.40;85.60
51811;DHT22;52468;40.116;18.296;2023-12-07T03:58:52;10.40;85.50
51811;DHT22;52468;40.116;18.296;2023-12-07T04:01:27;10.30;86.20
51811;DHT22;52468;40.116;18.296;2023-12-07T04:03:56;10.30;86.20
51811;DHT22;52468;40.116;18.296;2023-12-07T04:06:25;10.30;86.20
51811;DHT22;52468;40.116;18.296;2023-12-07T04:08:53;10.30;86.20
51811;DHT22;52468;40.116;18.296;2023-12-07T04:11:21;10.30;86.40
51811;DHT22;52468;40.116;18.296;2023-12-07T04:13:49;10.30;86.10
51811;DHT22;52468;40.116;18.296;2023-12-07T04:16:17;10.20;86.20
51811;DHT22;52468;40.116;18.296;2023-12-07T04:18:45;10.20;86.10
51811;DHT22;52468;40.116;18.296;2023-12-07T04:21:13;10.10;86.30
51811;DHT22;52468;40.116;18.296;2023-12-07T04:23:40;10.10;86.20
51811;DHT22;52468;40.116;18.296;2023-12-07T04:26:09;10.00;85.90
51811;DHT22;52468;40.116;18.296;2023-12-07T04:28:37;10.00;86.00
51811;DHT22;52468;40.116;18.296;2023-12-07T04:31:05;10.00;85.90
51811;DHT22;52468;40.116;18.296;2023-12-07T04:33:33;10.00;86.20
51811;DHT22;52468;40.116;18.296;2023-12-07T04:36:01;10.00;86.10
51811;DHT22;52468;40.116;18.296;2023-12-07T04:38:32;10.00;86.10
51811;DHT22;52468;40.116;18.296;2023-12-07T04:41:00;10.00;86.20
51811;DHT22;52468;40.116;18.296;2023-12-07T04:43:27;10.00;86.20
51811;DHT22;52468;40.116;18.296;2023-12-07T04:45:55;9.90;85.90
51811;DHT22;52468;40.116;18.296;2023-12-07T04:48:23;9.90;85.90
51811;DHT22;52468;40.116;18.296;2023-12-07T04:50:51;9.90;85.60
51811;DHT22;52468;40.116;18.296;2023-12-07T04:53:19;9.80;85.70
51811;DHT22;52468;40.116;18.296;2023-12-07T04:55:47;9.80;85.40
51811;DHT22;52468;40.116;18.296;2023-12-07T04:58:17;9.70;85.40
51811;DHT22;52468;40.116;18.296;2023-12-07T05:00:45;9.60;85.40
51811;DHT22;52468;40.116;18.296;2023-12-07T05:03:13;9.50;85.40
51811;DHT22;52468;40.116;18.296;2023-12-07T05:05:41;9.50;85.60
51811;DHT22;52468;40.116;18.296;2023-12-07T05:08:09;9.40;85.40
51811;DHT22;52468;40.116;18.296;2023-12-07T05:10:37;9.50;85.20
51811;DHT22;52468;40.116;18.296;2023-12-07T05:13:05;9.40;85.30
51811;DHT22;52468;40.116;18.296;2023-12-07T05:15:33;9.30;85.30
51811;DHT22;52468;40.116;18.296;2023-12-07T05:18:01;9.30;85.30
51811;DHT22;52468;40.116;18.296;2023-12-07T05:20:29;9.30;84.90
51811;DHT22;52468;40.116;18.296;2023-12-07T05:22:58;9.20;84.80
51811;DHT22;52468;40.116;18.296;2023-12-07T05:25:26;9.30;84.60
51811;DHT22;52468;40.116;18.296;2023-12-07T05:27:53;9.30;84.70
51811;DHT22;52468;40.116;18.296;2023-12-07T05:30:21;9.20;84.30
51811;DHT22;52468;40.116;18.296;2023-12-07T05:32:49;9.20;84.10
51811;DHT22;52468;40.116;18.296;2023-12-07T05:35:18;9.10;84.10
51811;DHT22;52468;40.116;18.296;2023-12-07T05:37:46;9.10;84.10
51811;DHT22;52468;40.116;18.296;2023-12-07T05:40:13;9.10;84.10
51811;DHT22;52468;40.116;18.296;2023-12-07T05:42:41;9.00;83.90
51811;DHT22;52468;40.116;18.296;2023-12-07T05:45:09;9.00;83.90
51811;DHT22;52468;40.116;18.296;2023-12-07T05:47:37;9.00;83.90
51811;DHT22;52468;40.116;18.296;2023-12-07T05:50:06;9.00;83.60
51811;DHT22;52468;40.116;18.296;2023-12-07T05:52:34;8.90;83.70
51811;DHT22;52468;40.116;18.296;2023-12-07T05:55:02;8.90;83.60
51811;DHT22;52468;40.116;18.296;2023-12-07T05:57:30;8.90;83.40
51811;DHT22;52468;40.116;18.296;2023-12-07T05:59:58;8.80;83.30
51811;DHT22;52468;40.116;18.296;2023-12-07T06:02:26;8.70;83.60
51811;DHT22;52468;40.116;18.296;2023-12-07T06:04:54;8.60;83.20
51811;DHT22;52468;40.116;18.296;2023-12-07T06:07:22;8.60;83.00
51811;DHT22;52468;40.116;18.296;2023-12-07T06:09:50;8.60;83.30
51811;DHT22;52468;40.116;18.296;2023-12-07T06:12:18;8.50;82.60
51811;DHT22;52468;40.116;18.296;2023-12-07T06:14:46;8.50;82.80
51811;DHT22;52468;40.116;18.296;2023-12-07T06:17:13;8.40;83.20
51811;DHT22;52468;40.116;18.296;2023-12-07T06:19:41;8.30;83.50
51811;DHT22;52468;40.116;18.296;2023-12-07T06:22:10;8.30;83.30
51811;DHT22;52468;40.116;18.296;2023-12-07T06:24:38;8.40;83.30
51811;DHT22;52468;40.116;18.296;2023-12-07T06:27:06;8.40;83.30
51811;DHT22;52468;40.116;18.296;2023-12-07T06:29:34;8.40;83.30
51811;DHT22;52468;40.116;18.296;2023-12-07T06:32:02;8.40;83.30
51811;DHT22;52468;40.116;18.296;2023-12-07T06:34:31;8.50;83.40
51811;DHT22;52468;40.116;18.296;2023-12-07T06:36:59;8.50;83.50
51811;DHT22;52468;40.116;18.296;2023-12-07T06:39:27;8.60;83.60
51811;DHT22;52468;40.116;18.296;2023-12-07T06:41:55;8.60;83.50
51811;DHT22;52468;40.116;18.296;2023-12-07T06:44:23;8.70;82.90
51811;DHT22;52468;40.116;18.296;2023-12-07T06:46:51;8.60;82.70
51811;DHT22;52468;40.116;18.296;2023-12-07T06:49:18;8.70;82.70
51811;DHT22;52468;40.116;18.296;2023-12-07T06:51:46;8.60;83.10
51811;DHT22;52468;40.116;18.296;2023-12-07T06:54:14;8.60;83.20
51811;DHT22;52468;40.116;18.296;2023-12-07T06:56:42;8.60;83.40
51811;DHT22;52468;40.116;18.296;2023-12-07T06:59:10;8.70;83.40
51811;DHT22;52468;40.116;18.296;2023-12-07T07:01:38;8.70;83.30
51811;DHT22;52468;40.116;18.296;2023-12-07T07:04:06;8.80;83.50
51811;DHT22;52468;40.116;18.296;2023-12-07T07:06:34;9.00;83.90
51811;DHT22;52468;40.116;18.296;2023-12-07T07:09:02;9.30;83.90
51811;DHT22;52468;40.116;18.296;2023-12-07T07:11:32;9.60;83.00
51811;DHT22;52468;40.116;18.296;2023-12-07T07:14:01;9.90;82.80
51811;DHT22;52468;40.116;18.296;2023-12-07T07:16:29;10.10;82.40
51811;DHT22;52468;40.116;18.296;2023-12-07T07:18:58;10.30;82.10
51811;DHT22;52468;40.116;18.296;2023-12-07T07:21:26;10.50;81.90
51811;DHT22;52468;40.116;18.296;2023-12-07T07:23:54;10.70;81.70
51811;DHT22;52468;40.116;18.296;2023-12-07T07:26:22;10.90;80.80
51811;DHT22;52468;40.116;18.296;2023-12-07T07:28:49;11.00;80.00
51811;DHT22;52468;40.116;18.296;2023-12-07T07:31:18;11.00;79.30
51811;DHT22;52468;40.116;18.296;2023-12-07T07:33:46;11.20;79.80
51811;DHT22;52468;40.116;18.296;2023-12-07T07:36:17;11.30;80.00
51811;DHT22;52468;40.116;18.296;2023-12-07T07:38:44;11.40;78.90
51811;DHT22;52468;40.116;18.296;2023-12-07T07:41:13;11.50;78.50
51811;DHT22;52468;40.116;18.296;2023-12-07T07:43:41;11.60;79.50
51811;DHT22;52468;40.116;18.296;2023-12-07T07:46:08;11.80;79.00
51811;DHT22;52468;40.116;18.296;2023-12-07T07:48:36;11.90;79.00
51811;DHT22;52468;40.116;18.296;2023-12-07T07:51:05;12.00;79.00
51811;DHT22;52468;40.116;18.296;2023-12-07T07:53:32;12.00;78.20
51811;DHT22;52468;40.116;18.296;2023-12-07T07:56:00;12.00;77.40
51811;DHT22;52468;40.116;18.296;2023-12-07T07:58:28;12.10;76.60
51811;DHT22;52468;40.116;18.296;2023-12-07T08:00:56;12.10;76.10
51811;DHT22;52468;40.116;18.296;2023-12-07T08:03:24;12.10;76.10
51811;DHT22;52468;40.116;18.296;2023-12-07T08:05:52;12.20;76.10
51811;DHT22;52468;40.116;18.296;2023-12-07T08:08:19;12.20;75.50
51811;DHT22;52468;40.116;18.296;2023-12-07T08:10:48;12.40;76.20
51811;DHT22;52468;40.116;18.296;2023-12-07T08:13:15;12.40;75.00
51811;DHT22;52468;40.116;18.296;2023-12-07T08:15:43;12.50;74.40
51811;DHT22;52468;40.116;18.296;2023-12-07T08:18:11;12.60;74.70
51811;DHT22;52468;40.116;18.296;2023-12-07T08:20:39;12.80;75.00
51811;DHT22;52468;40.116;18.296;2023-12-07T08:23:07;12.80;73.90
51811;DHT22;52468;40.116;18.296;2023-12-07T08:25:35;13.00;74.60
51811;DHT22;52468;40.116;18.296;2023-12-07T08:28:03;13.10;73.90
51811;DHT22;52468;40.116;18.296;2023-12-07T08:30:31;13.20;74.30
51811;DHT22;52468;40.116;18.296;2023-12-07T08:32:59;13.30;73.00
51811;DHT22;52468;40.116;18.296;2023-12-07T08:35:26;13.50;72.90
51811;DHT22;52468;40.116;18.296;2023-12-07T08:37:55;13.50;71.60
51811;DHT22;52468;40.116;18.296;2023-12-07T08:40:23;13.60;71.80
51811;DHT22;52468;40.116;18.296;2023-12-07T08:42:50;13.60;70.80
51811;DHT22;52468;40.116;18.296;2023-12-07T08:45:19;13.70;70.60
51811;DHT22;52468;40.116;18.296;2023-12-07T08:47:46;13.70;70.10
51811;DHT22;52468;40.116;18.296;2023-12-07T08:50:14;13.70;70.10
51811;DHT22;52468;40.116;18.296;2023-12-07T08:52:42;13.80;68.30
51811;DHT22;52468;40.116;18.296;2023-12-07T08:55:11;13.80;69.50
51811;DHT22;52468;40.116;18.296;2023-12-07T08:57:39;14.00;68.70
51811;DHT22;52468;40.116;18.296;2023-12-07T09:00:07;14.00;68.30
51811;DHT22;52468;40.116;18.296;2023-12-07T09:02:35;14.00;68.10
51811;DHT22;52468;40.116;18.296;2023-12-07T09:05:04;14.10;67.20
51811;DHT22;52468;40.116;18.296;2023-12-07T09:07:32;14.10;66.80
51811;DHT22;52468;40.116;18.296;2023-12-07T09:10:00;14.00;65.50
51811;DHT22;52468;40.116;18.296;2023-12-07T09:12:28;14.00;64.30
51811;DHT22;52468;40.116;18.296;2023-12-07T09:14:58;14.10;66.20
51811;DHT22;52468;40.116;18.296;2023-12-07T09:17:25;14.20;65.30
51811;DHT22;52468;40.116;18.296;2023-12-07T09:19:53;14.20;64.10
51811;DHT22;52468;40.116;18.296;2023-12-07T09:22:21;14.20;63.30
51811;DHT22;52468;40.116;18.296;2023-12-07T09:24:52;14.20;62.60
51811;DHT22;52468;40.116;18.296;2023-12-07T09:27:20;14.20;63.30
51811;DHT22;52468;40.116;18.296;2023-12-07T09:29:48;14.50;64.00
51811;DHT22;52468;40.116;18.296;2023-12-07T09:32:16;14.50;63.40
51811;DHT22;52468;40.116;18.296;2023-12-07T09:34:46;14.70;63.60
51811;DHT22;52468;40.116;18.296;2023-12-07T09:37:15;14.80;62.60
51811;DHT22;52468;40.116;18.296;2023-12-07T09:39:43;14.90;62.60
51811;DHT22;52468;40.116;18.296;2023-12-07T09:42:11;15.00;62.60
51811;DHT22;52468;40.116;18.296;2023-12-07T09:44:39;15.00;61.40
51811;DHT22;52468;40.116;18.296;2023-12-07T09:47:07;15.10;61.70
51811;DHT22;52468;40.116;18.296;2023-12-07T09:49:35;15.20;62.70
51811;DHT22;52468;40.116;18.296;2023-12-07T09:52:03;15.40;63.10
51811;DHT22;52468;40.116;18.296;2023-12-07T09:54:32;15.30;60.80
51811;DHT22;52468;40.116;18.296;2023-12-07T09:57:00;15.30;60.90
51811;DHT22;52468;40.116;18.296;2023-12-07T09:59:28;15.50;62.10
51811;DHT22;52468;40.116;18.296;2023-12-07T10:01:56;15.50;61.00
51811;DHT22;52468;40.116;18.296;2023-12-07T10:04:25;15.40;60.80
51811;DHT22;52468;40.116;18.296;2023-12-07T10:06:56;15.50;60.40
51811;DHT22;52468;40.116;18.296;2023-12-07T10:09:24;15.40;59.80
51811;DHT22;52468;40.116;18.296;2023-12-07T10:12:02;15.40;59.50
51811;DHT22;52468;40.116;18.296;2023-12-07T10:14:31;15.40;59.60
51811;DHT22;52468;40.116;18.296;2023-12-07T10:17:00;15.40;59.60
51811;DHT22;52468;40.116;18.296;2023-12-07T10:19:28;15.30;58.50
51811;DHT22;52468;40.116;18.296;2023-12-07T10:21:57;15.40;60.40
51811;DHT22;52468;40.116;18.296;2023-12-07T10:24:27;15.60;60.80
51811;DHT22;52468;40.116;18.296;2023-12-07T10:26:56;15.60;59.80
51811;DHT22;52468;40.116;18.296;2023-12-07T10:29:30;15.60;59.70
51811;DHT22;52468;40.116;18.296;2023-12-07T10:32:03;15.70;59.50
51811;DHT22;52468;40.116;18.296;2023-12-07T10:34:32;15.80;58.60
51811;DHT22;52468;40.116;18.296;2023-12-07T10:37:04;15.90;57.80
51811;DHT22;52468;40.116;18.296;2023-12-07T10:39:33;15.70;56.30
51811;DHT22;52468;40.116;18.296;2023-12-07T10:42:06;15.70;57.30
51811;DHT22;52468;40.116;18.296;2023-12-07T10:44:40;15.70;55.40
51811;DHT22;52468;40.116;18.296;2023-12-07T10:47:11;15.50;54.60
51811;DHT22;52468;40.116;18.296;2023-12-07T10:49:43;15.40;56.00
51811;DHT22;52468;40.116;18.296;2023-12-07T10:52:16;15.60;55.60
51811;DHT22;52468;40.116;18.296;2023-12-07T10:54:58;15.70;54.80
51811;DHT22;52468;40.116;18.296;2023-12-07T10:57:31;15.80;54.80
51811;DHT22;52468;40.116;18.296;2023-12-07T11:00:01;15.90;54.70
51811;DHT22;52468;40.116;18.296;2023-12-07T11:02:33;16.00;54.70
51811;DHT22;52468;40.116;18.296;2023-12-07T11:05:03;16.10;54.10
51811;DHT22;52468;40.116;18.296;2023-12-07T11:10:37;16.10;54.80
51811;DHT22;52468;40.116;18.296;2023-12-07T11:13:16;16.40;54.40
51811;DHT22;52468;40.116;18.296;2023-12-07T11:15:47;16.50;53.90
51811;DHT22;52468;40.116;18.296;2023-12-07T11:18:15;16.50;52.40
51811;DHT22;52468;40.116;18.296;2023-12-07T11:20:46;16.60;52.60
51811;DHT22;52468;40.116;18.296;2023-12-07T11:23:21;17.10;52.40
51811;DHT22;52468;40.116;18.296;2023-12-07T11:25:51;17.20;51.80
51811;DHT22;52468;40.116;18.296;2023-12-07T11:28:40;17.40;51.40
51811;DHT22;52468;40.116;18.296;2023-12-07T11:31:11;17.60;51.10
51811;DHT22;52468;40.116;18.296;2023-12-07T11:33:40;17.60;51.20
51811;DHT22;52468;40.116;18.296;2023-12-07T11:36:11;18.10;50.80
51811;DHT22;52468;40.116;18.296;2023-12-07T11:41:50;18.30;50.50
51811;DHT22;52468;40.116;18.296;2023-12-07T11:44:32;18.40;49.90
51811;DHT22;52468;40.116;18.296;2023-12-07T11:47:03;18.10;47.60
51811;DHT22;52468;40.116;18.296;2023-12-07T11:49:34;18.00;47.60
51811;DHT22;52468;40.116;18.296;2023-12-07T11:52:19;16.80;49.70
51811;DHT22;52468;40.116;18.296;2023-12-07T11:54:49;16.80;49.70
51811;DHT22;52468;40.116;18.296;2023-12-07T11:57:19;16.20;51.10
51811;DHT22;52468;40.116;18.296;2023-12-07T11:59:48;16.00;52.70
51811;DHT22;52468;40.116;18.296;2023-12-07T12:02:21;15.80;53.80
51811;DHT22;52468;40.116;18.296;2023-12-07T12:04:49;15.80;54.10
51811;DHT22;52468;40.116;18.296;2023-12-07T12:07:21;16.00;54.40
51811;DHT22;52468;40.116;18.296;2023-12-07T12:09:57;16.30;53.40
51811;DHT22;52468;40.116;18.296;2023-12-07T12:12:26;16.60;53.60
51811;DHT22;52468;40.116;18.296;2023-12-07T12:14:58;17.20;52.20
51811;DHT22;52468;40.116;18.296;2023-12-07T12:17:26;17.50;51.00
51811;DHT22;52468;40.116;18.296;2023-12-07T12:19:58;17.50;52.80
51811;DHT22;52468;40.116;18.296;2023-12-07T12:22:28;16.80;54.70
51811;DHT22;52468;40.116;18.296;2023-12-07T12:24:57;16.10;57.30
51811;DHT22;52468;40.116;18.296;2023-12-07T12:27:27;15.50;57.60
51811;DHT22;52468;40.116;18.296;2023-12-07T12:29:57;15.00;57.60
51811;DHT22;52468;40.116;18.296;2023-12-07T12:32:46;14.80;57.40
51811;DHT22;52468;40.116;18.296;2023-12-07T12:35:16;14.80;57.70
51811;DHT22;52468;40.116;18.296;2023-12-07T12:37:46;15.00;56.90
51811;DHT22;52468;40.116;18.296;2023-12-07T12:40:21;15.10;56.80
51811;DHT22;52468;40.116;18.296;2023-12-07T12:42:52;15.30;56.20
51811;DHT22;52468;40.116;18.296;2023-12-07T12:45:23;15.40;55.50
51811;DHT22;52468;40.116;18.296;2023-12-07T12:47:54;15.60;55.70
51811;DHT22;52468;40.116;18.296;2023-12-07T12:50:37;15.70;55.50
51811;DHT22;52468;40.116;18.296;2023-12-07T12:53:10;15.60;55.20
51811;DHT22;52468;40.116;18.296;2023-12-07T12:55:43;15.60;55.80
51811;DHT22;52468;40.116;18.296;2023-12-07T12:58:14;15.50;55.90
51811;DHT22;52468;40.116;18.296;2023-12-07T13:00:45;15.50;55.90
51811;DHT22;52468;40.116;18.296;2023-12-07T13:03:16;15.40;56.70
51811;DHT22;52468;40.116;18.296;2023-12-07T13:05:47;15.30;57.30
51811;DHT22;52468;40.116;18.296;2023-12-07T13:08:16;15.10;57.80
51811;DHT22;52468;40.116;18.296;2023-12-07T13:10:48;15.00;58.50
51811;DHT22;52468;40.116;18.296;2023-12-07T13:13:16;14.90;59.20
51811;DHT22;52468;40.116;18.296;2023-12-07T13:15:44;15.00;59.40
51811;DHT22;52468;40.116;18.296;2023-12-07T13:18:12;15.00;59.40
51811;DHT22;52468;40.116;18.296;2023-12-07T13:20:41;15.00;59.50
51811;DHT22;52468;40.116;18.296;2023-12-07T13:23:14;15.10;58.90
51811;DHT22;52468;40.116;18.296;2023-12-07T13:25:45;15.30;57.30
51811;DHT22;52468;40.116;18.296;2023-12-07T13:28:15;15.50;56.70
51811;DHT22;52468;40.116;18.296;2023-12-07T13:30:46;15.50;56.10
51811;DHT22;52468;40.116;18.296;2023-12-07T13:33:15;15.50;56.20
51811;DHT22;52468;40.116;18.296;2023-12-07T13:35:44;15.50;55.70
51811;DHT22;52468;40.116;18.296;2023-12-07T13:38:14;15.30;56.20
51811;DHT22;52468;40.116;18.296;2023-12-07T13:40:46;15.10;56.70
51811;DHT22;52468;40.116;18.296;2023-12-07T13:43:16;14.90;57.60
51811;DHT22;52468;40.116;18.296;2023-12-07T13:45:45;14.90;58.20
51811;DHT22;52468;40.116;18.296;2023-12-07T13:48:13;14.90;58.50
51811;DHT22;52468;40.116;18.296;2023-12-07T13:50:42;14.80;58.70
51811;DHT22;52468;40.116;18.296;2023-12-07T13:53:13;14.80;59.00
51811;DHT22;52468;40.116;18.296;2023-12-07T13:55:41;14.60;59.80
51811;DHT22;52468;40.116;18.296;2023-12-07T13:58:11;14.50;60.00
51811;DHT22;52468;40.116;18.296;2023-12-07T14:00:41;14.40;60.50
51811;DHT22;52468;40.116;18.296;2023-12-07T14:03:18;14.20;61.10
51811;DHT22;52468;40.116;18.296;2023-12-07T14:05:49;14.10;61.40
51811;DHT22;52468;40.116;18.296;2023-12-07T14:08:22;14.00;62.10
51811;DHT22;52468;40.116;18.296;2023-12-07T14:10:53;13.90;62.80
51811;DHT22;52468;40.116;18.296;2023-12-07T14:13:25;13.90;63.00
51811;DHT22;52468;40.116;18.296;2023-12-07T14:15:57;13.90;63.40
51811;DHT22;52468;40.116;18.296;2023-12-07T14:18:30;13.90;63.40
51811;DHT22;52468;40.116;18.296;2023-12-07T14:20:59;13.90;63.70
51811;DHT22;52468;40.116;18.296;2023-12-07T14:23:32;13.80;64.10
51811;DHT22;52468;40.116;18.296;2023-12-07T14:26:03;13.70;64.40
51811;DHT22;52468;40.116;18.296;2023-12-07T14:28:34;13.70;64.50
51811;DHT22;52468;40.116;18.296;2023-12-07T14:31:04;13.70;64.60
51811;DHT22;52468;40.116;18.296;2023-12-07T14:33:34;13.70;64.60
51811;DHT22;52468;40.116;18.296;2023-12-07T14:36:06;13.70;64.40
51811;DHT22;52468;40.116;18.296;2023-12-07T14:38:38;13.70;64.40
51811;DHT22;52468;40.116;18.296;2023-12-07T14:41:09;13.70;64.60
51811;DHT22;52468;40.116;18.296;2023-12-07T14:43:40;13.60;63.90
51811;DHT22;52468;40.116;18.296;2023-12-07T14:46:08;13.60;63.10
51811;DHT22;52468;40.116;18.296;2023-12-07T14:48:40;13.50;63.20
51811;DHT22;52468;40.116;18.296;2023-12-07T14:51:10;13.50;62.70
51811;DHT22;52468;40.116;18.296;2023-12-07T14:53:41;13.60;62.20
51811;DHT22;52468;40.116;18.296;2023-12-07T14:56:10;13.70;61.80
51811;DHT22;52468;40.116;18.296;2023-12-07T14:58:41;13.50;61.50
51811;DHT22;52468;40.116;18.296;2023-12-07T15:01:10;13.50;61.60
51811;DHT22;52468;40.116;18.296;2023-12-07T15:03:40;13.40;61.30
51811;DHT22;52468;40.116;18.296;2023-12-07T15:06:11;13.20;61.30
51811;DHT22;52468;40.116;18.296;2023-12-07T15:08:44;13.10;61.70
51811;DHT22;52468;40.116;18.296;2023-12-07T15:11:14;13.10;61.40
51811;DHT22;52468;40.116;18.296;2023-12-07T15:13:50;13.00;61.60
51811;DHT22;52468;40.116;18.296;2023-12-07T15:16:21;13.00;61.40
51811;DHT22;52468;40.116;18.296;2023-12-07T15:18:50;13.10;61.00
51811;DHT22;52468;40.116;18.296;2023-12-07T15:21:20;12.90;61.30
51811;DHT22;52468;40.116;18.296;2023-12-07T15:24:11;12.80;61.90
51811;DHT22;52468;40.116;18.296;2023-12-07T15:26:47;12.60;62.50
51811;DHT22;52468;40.116;18.296;2023-12-07T15:29:21;12.50;63.20
51811;DHT22;52468;40.116;18.296;2023-12-07T15:31:53;12.30;63.40
51811;DHT22;52468;40.116;18.296;2023-12-07T15:34:24;12.30;63.80
51811;DHT22;52468;40.116;18.296;2023-12-07T15:36:53;12.10;64.10
51811;DHT22;52468;40.116;18.296;2023-12-07T15:39:23;12.10;64.30
51811;DHT22;52468;40.116;18.296;2023-12-07T15:41:53;12.00;64.00
51811;DHT22;52468;40.116;18.296;2023-12-07T15:44:23;12.00;63.90
51811;DHT22;52468;40.116;18.296;2023-12-07T15:46:57;12.00;63.50
51811;DHT22;52468;40.116;18.296;2023-12-07T15:49:29;12.00;63.40
51811;DHT22;52468;40.116;18.296;2023-12-07T15:51:58;12.00;63.10
51811;DHT22;52468;40.116;18.296;2023-12-07T15:54:29;12.00;62.80
51811;DHT22;52468;40.116;18.296;2023-12-07T15:57:02;11.90;62.90
51811;DHT22;52468;40.116;18.296;2023-12-07T15:59:31;11.70;63.30
51811;DHT22;52468;40.116;18.296;2023-12-07T16:02:09;11.70;63.30
51811;DHT22;52468;40.116;18.296;2023-12-07T16:04:42;11.50;63.70
51811;DHT22;52468;40.116;18.296;2023-12-07T16:07:16;11.50;63.70
51811;DHT22;52468;40.116;18.296;2023-12-07T16:09:49;11.50;63.80
51811;DHT22;52468;40.116;18.296;2023-12-07T16:12:19;11.30;64.10
51811;DHT22;52468;40.116;18.296;2023-12-07T16:14:49;11.30;64.10
51811;DHT22;52468;40.116;18.296;2023-12-07T16:17:24;11.20;64.20
51811;DHT22;52468;40.116;18.296;2023-12-07T16:19:55;11.10;64.50
51811;DHT22;52468;40.116;18.296;2023-12-07T16:22:27;11.10;64.60
51811;DHT22;52468;40.116;18.296;2023-12-07T16:25:00;11.00;64.80
51811;DHT22;52468;40.116;18.296;2023-12-07T16:27:31;11.00;64.70